sensor_id;sensor_type;location;lat;lon;timestamp;pressure;altitude;pressure_sealevel;temperature;humidity
63808;BME280;49961;43.970;22.868;2023-02-04T00:00:57;101076.91;;;7.09;100.00
63808;BME280;49961;43.970;22.868;2023-02-04T00:01:59;101169.28;;;7.66;100.00
63808;BME280;49961;43.970;22.868;2023-02-04T00:02:59;101146.47;;;7.65;100.00
63808;BME280;49961;43.970;22.868;2023-02-04T00:04:00;101156.31;;;7.66;100.00
63808;BME280;49961;43.970;22.868;2023-02-04T00:05:00;101158.28;;;7.62;100.00
63808;BME280;49961;43.970;22.868;2023-02-04T00:06:01;101157.88;;;7.64;100.00
63808;BME280;49961;43.970;22.868;2023-02-04T00:07:01;101163.03;;;7.55;100.00
63808;BME280;49961;43.970;22.868;2023-02-04T00:08:02;101149.66;;;7.50;100.00
63808;BME280;49961;43.970;22.868;2023-02-04T00:09:03;101154.38;;;7.56;100.00
63808;BME280;49961;43.970;22.868;2023-02-04T00:10:05;101140.97;;;7.55;100.00
63808;BME280;49961;43.970;22.868;2023-02-04T00:11:06;101148.44;;;7.54;100.00
63808;BME280;49961;43.970;22.868;2023-02-04T00:12:06;101143.34;;;7.53;100.00
63808;BME280;49961;43.970;22.868;2023-02-04T00:13:09;101146.47;;;7.55;100.00
63808;BME280;49961;43.970;22.868;2023-02-04T00:14:10;101060.78;;;7.04;100.00
63808;BME280;49961;43.970;22.868;2023-02-04T00:15:10;101131.91;;;7.51;100.00
63808;BME280;49961;43.970;22.868;2023-02-04T00:16:11;101130.34;;;7.50;100.00
63808;BME280;49961;43.970;22.868;2023-02-04T00:17:11;101144.50;;;7.52;100.00
63808;BME280;49961;43.970;22.868;2023-02-04T00:18:12;101137.81;;;7.56;100.00
63808;BME280;49961;43.970;22.868;2023-02-04T00:19:12;101138.59;;;7.53;100.00
63808;BME280;49961;43.970;22.868;2023-02-04T00:20:13;101090.25;;;7.24;100.00
63808;BME280;49961;43.970;22.868;2023-02-04T00:21:13;101140.97;;;7.51;100.00
63808;BME280;49961;43.970;22.868;2023-02-04T00:22:14;101137.44;;;7.47;100.00
63808;BME280;49961;43.970;22.868;2023-02-04T00:23:14;101122.06;;;7.50;100.00
63808;BME280;49961;43.970;22.868;2023-02-04T00:24:15;101125.25;;;7.45;100.00
63808;BME280;49961;43.970;22.868;2023-02-04T00:25:15;101110.66;;;7.41;100.00
63808;BME280;49961;43.970;22.868;2023-02-04T00:26:16;101101.28;;;7.28;100.00
63808;BME280;49961;43.970;22.868;2023-02-04T00:27:17;101119.34;;;7.36;100.00
63808;BME280;49961;43.970;22.868;2023-02-04T00:28:17;100986.13;;;6.56;100.00
63808;BME280;49961;43.970;22.868;2023-02-04T00:29:17;101115.78;;;7.42;100.00
63808;BME280;49961;43.970;22.868;2023-02-04T00:30:18;101107.53;;;7.39;100.00
63808;BME280;49961;43.970;22.868;2023-02-04T00:31:19;101112.22;;;7.49;100.00
63808;BME280;49961;43.970;22.868;2023-02-04T00:32:19;101111.44;;;7.45;100.00
63808;BME280;49961;43.970;22.868;2023-02-04T00:33:20;101110.25;;;7.46;100.00
63808;BME280;49961;43.970;22.868;2023-02-04T00:34:20;101107.94;;;7.34;100.00
63808;BME280;49961;43.970;22.868;2023-02-04T00:35:22;101111.84;;;7.43;100.00
63808;BME280;49961;43.970;22.868;2023-02-04T00:36:23;101110.28;;;7.39;100.00
63808;BME280;49961;43.970;22.868;2023-02-04T00:37:23;100988.84;;;6.60;100.00
63808;BME280;49961;43.970;22.868;2023-02-04T00:38:24;101105.16;;;7.41;100.00
63808;BME280;49961;43.970;22.868;2023-02-04T00:39:24;101094.94;;;7.38;100.00
63808;BME280;49961;43.970;22.868;2023-02-04T00:40:24;101098.47;;;7.38;100.00
63808;BME280;49961;43.970;22.868;2023-02-04T00:41:25;101048.19;;;7.03;100.00
63808;BME280;49961;43.970;22.868;2023-02-04T00:42:25;101100.84;;;7.36;100.00
63808;BME280;49961;43.970;22.868;2023-02-04T00:43:26;101099.63;;;7.44;100.00
63808;BME280;49961;43.970;22.868;2023-02-04T00:44:26;101061.53;;;7.15;100.00
63808;BME280;49961;43.970;22.868;2023-02-04T00:45:27;101113.06;;;7.39;100.00
63808;BME280;49961;43.970;22.868;2023-02-04T00:46:27;101104.75;;;7.42;100.00
63808;BME280;49961;43.970;22.868;2023-02-04T00:47:28;101094.16;;;7.37;100.00
63808;BME280;49961;43.970;22.868;2023-02-04T00:48:28;101092.59;;;7.29;100.00
63808;BME280;49961;43.970;22.868;2023-02-04T00:49:29;101049.72;;;7.11;100.00
63808;BME280;49961;43.970;22.868;2023-02-04T00:50:29;101078.81;;;7.33;100.00
63808;BME280;49961;43.970;22.868;2023-02-04T00:51:29;101083.53;;;7.32;100.00
63808;BME280;49961;43.970;22.868;2023-02-04T00:52:30;101071.31;;;7.30;100.00
63808;BME280;49961;43.970;22.868;2023-02-04T00:53:30;101074.50;;;7.25;100.00
63808;BME280;49961;43.970;22.868;2023-02-04T00:54:31;100985.72;;;6.68;100.00
63808;BME280;49961;43.970;22.868;2023-02-04T00:55:31;101001.38;;;6.89;100.00
63808;BME280;49961;43.970;22.868;2023-02-04T00:56:33;100946.81;;;6.45;100.00
63808;BME280;49961;43.970;22.868;2023-02-04T00:57:33;101045.38;;;7.13;100.00
63808;BME280;49961;43.970;22.868;2023-02-04T00:58:34;101058.78;;;7.22;100.00
63808;BME280;49961;43.970;22.868;2023-02-04T00:59:34;101061.91;;;7.20;100.00
63808;BME280;49961;43.970;22.868;2023-02-04T01:00:34;101061.13;;;7.20;100.00
63808;BME280;49961;43.970;22.868;2023-02-04T01:01:35;101045.38;;;7.20;100.00
63808;BME280;49961;43.970;22.868;2023-02-04T01:02:36;101049.72;;;7.18;100.00
63808;BME280;49961;43.970;22.868;2023-02-04T01:03:36;101037.53;;;7.15;100.00
63808;BME280;49961;43.970;22.868;2023-02-04T01:04:37;101043.81;;;7.19;100.00
63808;BME280;49961;43.970;22.868;2023-02-04T01:05:37;101054.44;;;7.17;100.00
63808;BME280;49961;43.970;22.868;2023-02-04T01:06:37;101059.94;;;7.17;100.00
63808;BME280;49961;43.970;22.868;2023-02-04T01:07:38;101059.94;;;7.21;100.00
63808;BME280;49961;43.970;22.868;2023-02-04T01:08:38;101023.81;;;6.94;100.00
63808;BME280;49961;43.970;22.868;2023-02-04T01:09:39;101052.47;;;7.18;100.00
63808;BME280;49961;43.970;22.868;2023-02-04T01:10:39;100991.59;;;6.70;100.00
63808;BME280;49961;43.970;22.868;2023-02-04T01:11:40;101049.34;;;7.09;100.00
63808;BME280;49961;43.970;22.868;2023-02-04T01:12:40;101008.50;;;6.79;100.00
63808;BME280;49961;43.970;22.868;2023-02-04T01:13:40;100960.53;;;6.52;100.00
63808;BME280;49961;43.970;22.868;2023-02-04T01:14:41;101053.66;;;7.13;100.00
63808;BME280;49961;43.970;22.868;2023-02-04T01:15:41;101053.25;;;7.18;100.00
63808;BME280;49961;43.970;22.868;2023-02-04T01:16:42;101005.34;;;6.84;100.00
63808;BME280;49961;43.970;22.868;2023-02-04T01:17:42;101051.28;;;7.19;100.00
63808;BME280;49961;43.970;22.868;2023-02-04T01:18:43;101044.53;;;7.27;100.00
63808;BME280;49961;43.970;22.868;2023-02-04T01:19:43;101042.97;;;7.29;100.00
63808;BME280;49961;43.970;22.868;2023-02-04T01:20:43;101041.81;;;7.30;100.00
63808;BME280;49961;43.970;22.868;2023-02-04T01:21:44;101003.28;;;7.13;100.00
63808;BME280;49961;43.970;22.868;2023-02-04T01:22:44;100929.47;;;6.55;100.00
63808;BME280;49961;43.970;22.868;2023-02-04T01:23:45;101035.88;;;7.28;100.00
63808;BME280;49961;43.970;22.868;2023-02-04T01:24:45;101028.00;;;7.27;100.00
63808;BME280;49961;43.970;22.868;2023-02-04T01:25:46;101034.72;;;7.26;100.00
63808;BME280;49961;43.970;22.868;2023-02-04T01:26:46;101032.75;;;7.26;100.00
63808;BME280;49961;43.970;22.868;2023-02-04T01:27:46;100898.44;;;6.44;100.00
63808;BME280;49961;43.970;22.868;2023-02-04T01:28:47;100985.97;;;7.09;100.00
63808;BME280;49961;43.970;22.868;2023-02-04T01:29:47;100921.94;;;6.77;100.00
63808;BME280;49961;43.970;22.868;2023-02-04T01:30:48;100908.97;;;6.74;100.00
63808;BME280;49961;43.970;22.868;2023-02-04T01:31:48;101005.16;;;7.33;100.00
63808;BME280;49961;43.970;22.868;2023-02-04T01:32:49;101014.22;;;7.30;100.00
63808;BME280;49961;43.970;22.868;2023-02-04T01:33:49;101011.47;;;7.27;100.00
63808;BME280;49961;43.970;22.868;2023-02-04T01:34:50;101005.59;;;7.21;100.00
63808;BME280;49961;43.970;22.868;2023-02-04T01:35:50;101012.25;;;7.27;100.00
63808;BME280;49961;43.970;22.868;2023-02-04T01:36:50;100861.09;;;6.36;100.00
63808;BME280;49961;43.970;22.868;2023-02-04T01:37:51;101009.91;;;7.22;100.00
63808;BME280;49961;43.970;22.868;2023-02-04T01:38:51;101012.28;;;7.24;100.00
63808;BME280;49961;43.970;22.868;2023-02-04T01:39:52;101020.16;;;7.18;100.00
63808;BME280;49961;43.970;22.868;2023-02-04T01:40:52;101024.91;;;7.21;100.00
63808;BME280;49961;43.970;22.868;2023-02-04T01:41:53;101012.69;;;7.22;100.00
63808;BME280;49961;43.970;22.868;2023-02-04T01:42:53;101028.09;;;7.13;100.00
63808;BME280;49961;43.970;22.868;2023-02-04T01:43:54;101028.44;;;7.18;100.00
63808;BME280;49961;43.970;22.868;2023-02-04T01:44:54;101021.78;;;7.12;100.00
63808;BME280;49961;43.970;22.868;2023-02-04T01:45:55;101015.50;;;7.12;100.00
63808;BME280;49961;43.970;22.868;2023-02-04T01:46:56;101021.00;;;7.12;100.00
63808;BME280;49961;43.970;22.868;2023-02-04T01:47:56;101012.75;;;7.12;100.00
63808;BME280;49961;43.970;22.868;2023-02-04T01:48:57;100966.03;;;6.73;100.00
63808;BME280;49961;43.970;22.868;2023-02-04T01:49:57;101017.06;;;7.13;100.00
63808;BME280;49961;43.970;22.868;2023-02-04T01:51:07;100927.16;;;6.47;100.00
63808;BME280;49961;43.970;22.868;2023-02-04T01:52:09;101008.38;;;7.18;100.00
63808;BME280;49961;43.970;22.868;2023-02-04T01:53:10;100906.66;;;6.55;100.00
63808;BME280;49961;43.970;22.868;2023-02-04T01:54:11;100905.91;;;6.51;100.00
63808;BME280;49961;43.970;22.868;2023-02-04T01:55:16;100993.81;;;7.14;100.00
63808;BME280;49961;43.970;22.868;2023-02-04T01:56:19;101004.44;;;7.15;100.00
63808;BME280;49961;43.970;22.868;2023-02-04T01:57:20;101004.81;;;7.21;100.00
63808;BME280;49961;43.970;22.868;2023-02-04T01:58:20;101006.41;;;7.22;100.00
63808;BME280;49961;43.970;22.868;2023-02-04T01:59:21;100998.13;;;7.22;100.00
63808;BME280;49961;43.970;22.868;2023-02-04T02:00:26;101000.91;;;7.15;100.00
63808;BME280;49961;43.970;22.868;2023-02-04T02:01:41;100998.53;;;7.13;100.00
63808;BME280;49961;43.970;22.868;2023-02-04T02:02:46;100984.41;;;7.01;100.00
63808;BME280;49961;43.970;22.868;2023-02-04T02:03:46;100952.22;;;6.80;100.00
63808;BME280;49961;43.970;22.868;2023-02-04T02:04:47;101003.72;;;7.04;100.00
63808;BME280;49961;43.970;22.868;2023-02-04T02:05:50;101004.47;;;7.08;100.00
63808;BME280;49961;43.970;22.868;2023-02-04T02:06:55;100991.84;;;7.11;100.00
63808;BME280;49961;43.970;22.868;2023-02-04T02:07:59;100992.63;;;7.15;100.00
63808;BME280;49961;43.970;22.868;2023-02-04T02:09:01;100863.50;;;6.27;100.00
63808;BME280;49961;43.970;22.868;2023-02-04T02:10:04;100996.97;;;7.12;100.00
63808;BME280;49961;43.970;22.868;2023-02-04T02:11:05;101002.91;;;7.07;100.00
63808;BME280;49961;43.970;22.868;2023-02-04T02:12:06;100964.44;;;6.79;100.00
63808;BME280;49961;43.970;22.868;2023-02-04T02:13:09;100998.94;;;7.15;100.00
63808;BME280;49961;43.970;22.868;2023-02-04T02:14:11;100898.81;;;6.46;100.00
63808;BME280;49961;43.970;22.868;2023-02-04T02:15:12;101003.28;;;7.13;100.00
63808;BME280;49961;43.970;22.868;2023-02-04T02:16:13;101007.19;;;7.19;100.00
63808;BME280;49961;43.970;22.868;2023-02-04T02:17:13;100996.97;;;7.19;100.00
63808;BME280;49961;43.970;22.868;2023-02-04T02:18:14;100847.38;;;6.26;100.00
63808;BME280;49961;43.970;22.868;2023-02-04T02:19:19;100962.00;;;6.95;100.00
63808;BME280;49961;43.970;22.868;2023-02-04T02:20:24;100992.22;;;7.20;100.00
63808;BME280;49961;43.970;22.868;2023-02-04T02:21:38;101003.63;;;7.18;100.00
63808;BME280;49961;43.970;22.868;2023-02-04T02:22:54;101008.78;;;7.16;100.00
63808;BME280;49961;43.970;22.868;2023-02-04T02:23:58;101010.34;;;7.14;100.00
63808;BME280;49961;43.970;22.868;2023-02-04T02:25:00;101009.56;;;7.10;100.00
63808;BME280;49961;43.970;22.868;2023-02-04T02:26:00;101030.84;;;7.06;100.00
63808;BME280;49961;43.970;22.868;2023-02-04T02:27:04;101009.63;;;7.03;100.00
63808;BME280;49961;43.970;22.868;2023-02-04T02:28:12;101027.34;;;7.02;100.00
63808;BME280;49961;43.970;22.868;2023-02-04T02:29:13;101010.38;;;7.03;100.00
63808;BME280;49961;43.970;22.868;2023-02-04T02:30:14;101025.34;;;7.02;100.00
63808;BME280;49961;43.970;22.868;2023-02-04T02:31:20;100966.78;;;6.74;100.00
63808;BME280;49961;43.970;22.868;2023-02-04T02:32:21;101022.19;;;7.07;100.00
63808;BME280;49961;43.970;22.868;2023-02-04T02:33:22;101000.19;;;6.93;100.00
63808;BME280;49961;43.970;22.868;2023-02-04T02:34:26;101023.75;;;7.05;100.00
63808;BME280;49961;43.970;22.868;2023-02-04T02:35:27;101020.63;;;7.03;100.00
63808;BME280;49961;43.970;22.868;2023-02-04T02:36:28;101023.38;;;7.03;100.00
63808;BME280;49961;43.970;22.868;2023-02-04T02:37:30;101029.66;;;7.14;100.00
63808;BME280;49961;43.970;22.868;2023-02-04T02:38:31;101029.66;;;7.14;100.00
63808;BME280;49961;43.970;22.868;2023-02-04T02:39:31;100960.91;;;6.65;100.00
63808;BME280;49961;43.970;22.868;2023-02-04T02:40:32;101012.72;;;7.08;100.00
63808;BME280;49961;43.970;22.868;2023-02-04T02:41:32;101019.81;;;7.13;100.00
63808;BME280;49961;43.970;22.868;2023-02-04T02:42:34;101008.38;;;7.11;100.00
63808;BME280;49961;43.970;22.868;2023-02-04T02:43:36;101012.31;;;7.13;100.00
63808;BME280;49961;43.970;22.868;2023-02-04T02:44:37;101024.13;;;7.14;100.00
63808;BME280;49961;43.970;22.868;2023-02-04T02:45:37;101013.50;;;7.19;100.00
63808;BME280;49961;43.970;22.868;2023-02-04T02:46:38;101020.59;;;7.13;100.00
63808;BME280;49961;43.970;22.868;2023-02-04T02:47:39;101023.34;;;7.17;100.00
63808;BME280;49961;43.970;22.868;2023-02-04T02:48:40;101026.09;;;7.20;100.00
63808;BME280;49961;43.970;22.868;2023-02-04T02:49:41;100921.59;;;6.57;100.00
63808;BME280;49961;43.970;22.868;2023-02-04T02:50:42;101022.56;;;7.13;100.00
63808;BME280;49961;43.970;22.868;2023-02-04T02:51:44;101011.56;;;7.09;100.00
63808;BME280;49961;43.970;22.868;2023-02-04T02:52:45;101026.50;;;7.08;100.00
63808;BME280;49961;43.970;22.868;2023-02-04T02:53:47;101013.50;;;7.12;100.00
63808;BME280;49961;43.970;22.868;2023-02-04T02:54:48;101017.03;;;7.16;100.00
63808;BME280;49961;43.970;22.868;2023-02-04T02:55:50;101026.88;;;7.14;100.00
63808;BME280;49961;43.970;22.868;2023-02-04T02:56:51;101010.44;;;6.93;100.00
63808;BME280;49961;43.970;22.868;2023-02-04T02:57:53;101017.06;;;7.09;100.00
63808;BME280;49961;43.970;22.868;2023-02-04T02:58:54;101011.56;;;7.09;100.00
63808;BME280;49961;43.970;22.868;2023-02-04T02:59:55;101009.56;;;7.10;100.00
63808;BME280;49961;43.970;22.868;2023-02-04T03:00:56;101007.22;;;7.05;100.00
63808;BME280;49961;43.970;22.868;2023-02-04T03:01:59;100894.94;;;6.37;100.00
63808;BME280;49961;43.970;22.868;2023-02-04T03:03:05;100938.91;;;6.61;100.00
63808;BME280;49961;43.970;22.868;2023-02-04T03:04:07;101000.94;;;7.04;100.00
63808;BME280;49961;43.970;22.868;2023-02-04T03:05:08;100998.66;;;6.78;100.00
63808;BME280;49961;43.970;22.868;2023-02-04T03:06:15;101008.41;;;7.04;100.00
63808;BME280;49961;43.970;22.868;2023-02-04T03:07:18;100997.41;;;6.93;100.00
63808;BME280;49961;43.970;22.868;2023-02-04T03:08:20;100990.75;;;6.94;100.00
63808;BME280;49961;43.970;22.868;2023-02-04T03:09:22;100891.78;;;6.31;100.00
63808;BME280;49961;43.970;22.868;2023-02-04T03:10:24;100997.44;;;6.97;100.00
63808;BME280;49961;43.970;22.868;2023-02-04T03:11:25;101003.69;;;7.01;100.00
63808;BME280;49961;43.970;22.868;2023-02-04T03:12:28;101002.91;;;7.04;100.00
63808;BME280;49961;43.970;22.868;2023-02-04T03:13:29;100993.03;;;7.10;100.00
63808;BME280;49961;43.970;22.868;2023-02-04T03:14:30;101001.72;;;7.05;100.00
63808;BME280;49961;43.970;22.868;2023-02-04T03:15:30;100979.31;;;6.96;100.00
63808;BME280;49961;43.970;22.868;2023-02-04T03:16:32;100992.28;;;7.09;100.00
63808;BME280;49961;43.970;22.868;2023-02-04T03:17:34;100981.22;;;7.13;100.00
63808;BME280;49961;43.970;22.868;2023-02-04T03:18:35;100907.03;;;6.64;100.00
63808;BME280;49961;43.970;22.868;2023-02-04T03:19:37;100982.03;;;7.10;100.00
63808;BME280;49961;43.970;22.868;2023-02-04T03:20:39;100983.97;;;7.13;100.00
63808;BME280;49961;43.970;22.868;2023-02-04T03:21:40;101000.94;;;7.04;100.00
63808;BME280;49961;43.970;22.868;2023-02-04T03:22:41;100980.06;;;7.03;100.00
63808;BME280;49961;43.970;22.868;2023-02-04T03:23:41;100979.31;;;6.99;100.00
63808;BME280;49961;43.970;22.868;2023-02-04T03:24:42;100978.91;;;6.97;100.00
63808;BME280;49961;43.970;22.868;2023-02-04T03:25:42;100909.03;;;6.53;100.00
63808;BME280;49961;43.970;22.868;2023-02-04T03:26:43;100924.28;;;6.75;100.00
63808;BME280;49961;43.970;22.868;2023-02-04T03:27:44;100967.09;;;7.00;100.00
63808;BME280;49961;43.970;22.868;2023-02-04T03:28:44;100962.00;;;6.95;100.00
63808;BME280;49961;43.970;22.868;2023-02-04T03:29:45;100965.59;;;6.82;100.00
63808;BME280;49961;43.970;22.868;2023-02-04T03:30:45;100940.88;;;6.64;100.00
63808;BME280;49961;43.970;22.868;2023-02-04T03:31:54;100968.34;;;6.85;100.00
63808;BME280;49961;43.970;22.868;2023-02-04T03:32:55;100968.38;;;6.78;100.00
63808;BME280;49961;43.970;22.868;2023-02-04T03:33:56;100933.41;;;6.58;100.00
63808;BME280;49961;43.970;22.868;2023-02-04T03:34:56;100977.38;;;6.82;100.00
63808;BME280;49961;43.970;22.868;2023-02-04T03:35:57;100963.28;;;6.73;100.00
63808;BME280;49961;43.970;22.868;2023-02-04T03:36:58;100970.31;;;6.85;100.00
63808;BME280;49961;43.970;22.868;2023-02-04T03:37:58;100970.31;;;6.85;100.00
63808;BME280;49961;43.970;22.868;2023-02-04T03:38:59;100974.63;;;6.86;100.00
63808;BME280;49961;43.970;22.868;2023-02-04T03:39:59;100898.09;;;6.25;100.00
63808;BME280;49961;43.970;22.868;2023-02-04T03:41:00;100983.72;;;6.76;100.00
63808;BME280;49961;43.970;22.868;2023-02-04T03:42:00;100981.75;;;6.73;100.00
63808;BME280;49961;43.970;22.868;2023-02-04T03:43:01;100893.78;;;6.27;100.00
63808;BME280;49961;43.970;22.868;2023-02-04T03:44:01;100970.72;;;6.76;100.00
63808;BME280;49961;43.970;22.868;2023-02-04T03:45:02;100967.19;;;6.79;100.00
63808;BME280;49961;43.970;22.868;2023-02-04T03:46:03;100975.88;;;6.71;100.00
63808;BME280;49961;43.970;22.868;2023-02-04T03:47:04;100926.75;;;6.48;100.00
63808;BME280;49961;43.970;22.868;2023-02-04T03:48:04;100966.78;;;6.74;100.00
63808;BME280;49961;43.970;22.868;2023-02-04T03:49:05;100903.56;;;6.35;100.00
63808;BME280;49961;43.970;22.868;2023-02-04T03:50:05;100959.31;;;6.74;100.00
63808;BME280;49961;43.970;22.868;2023-02-04T03:51:06;100964.84;;;6.67;100.00
63808;BME280;49961;43.970;22.868;2023-02-04T03:52:06;100964.09;;;6.63;100.00
63808;BME280;49961;43.970;22.868;2023-02-04T03:53:07;100964.84;;;6.64;100.00
63808;BME280;49961;43.970;22.868;2023-02-04T03:54:08;100968.41;;;6.57;100.00
63808;BME280;49961;43.970;22.868;2023-02-04T03:55:08;100926.38;;;6.29;100.00
63808;BME280;49961;43.970;22.868;2023-02-04T03:56:09;100968.44;;;6.50;100.00
63808;BME280;49961;43.970;22.868;2023-02-04T03:57:09;100979.06;;;6.52;100.00
63808;BME280;49961;43.970;22.868;2023-02-04T03:58:10;100980.63;;;6.49;100.00
63808;BME280;49961;43.970;22.868;2023-02-04T03:59:10;100972.34;;;6.53;100.00
63808;BME280;49961;43.970;22.868;2023-02-04T04:00:11;100974.34;;;6.56;100.00
63808;BME280;49961;43.970;22.868;2023-02-04T04:01:12;100969.63;;;6.49;100.00
63808;BME280;49961;43.970;22.868;2023-02-04T04:02:13;100968.84;;;6.45;100.00
63808;BME280;49961;43.970;22.868;2023-02-04T04:03:13;100974.31;;;6.49;100.00
63808;BME280;49961;43.970;22.868;2023-02-04T04:04:14;100962.94;;;6.47;100.00
63808;BME280;49961;43.970;22.868;2023-02-04T04:05:14;100979.88;;;6.38;100.00
63808;BME280;49961;43.970;22.868;2023-02-04T04:06:15;100918.97;;;6.05;100.00
63808;BME280;49961;43.970;22.868;2023-02-04T04:07:15;100979.84;;;6.45;100.00
63808;BME280;49961;43.970;22.868;2023-02-04T04:08:15;100961.75;;;6.34;100.00
63808;BME280;49961;43.970;22.868;2023-02-04T04:09:16;100973.53;;;6.45;100.00
63808;BME280;49961;43.970;22.868;2023-02-04T04:10:16;100978.66;;;6.46;100.00
63808;BME280;49961;43.970;22.868;2023-02-04T04:11:17;100913.84;;;6.03;100.00
63808;BME280;49961;43.970;22.868;2023-02-04T04:12:17;100974.34;;;6.42;100.00
63808;BME280;49961;43.970;22.868;2023-02-04T04:13:18;100972.78;;;6.37;100.00
63808;BME280;49961;43.970;22.868;2023-02-04T04:14:18;100799.56;;;5.29;100.00
63808;BME280;49961;43.970;22.868;2023-02-04T04:15:18;100877.69;;;5.66;100.00
63808;BME280;49961;43.970;22.868;2023-02-04T04:16:19;100985.38;;;6.38;100.00
63808;BME280;49961;43.970;22.868;2023-02-04T04:17:20;100981.44;;;6.39;100.00
63808;BME280;49961;43.970;22.868;2023-02-04T04:18:20;100986.53;;;6.44;100.00
63808;BME280;49961;43.970;22.868;2023-02-04T04:19:20;100997.53;;;6.44;100.00
63808;BME280;49961;43.970;22.868;2023-02-04T04:20:21;100987.31;;;6.45;100.00
63808;BME280;49961;43.970;22.868;2023-02-04T04:21:24;100976.31;;;6.38;100.00
63808;BME280;49961;43.970;22.868;2023-02-04T04:22:25;100989.25;;;6.55;100.00
63808;BME280;49961;43.970;22.868;2023-02-04T04:23:26;100994.38;;;6.63;100.00
63808;BME280;49961;43.970;22.868;2023-02-04T04:24:26;100993.19;;;6.68;100.00
63808;BME280;49961;43.970;22.868;2023-02-04T04:25:26;100992.00;;;6.65;100.00
63808;BME280;49961;43.970;22.868;2023-02-04T04:26:27;101001.44;;;6.68;100.00
63808;BME280;49961;43.970;22.868;2023-02-04T04:27:27;100871.03;;;5.88;100.00
63808;BME280;49961;43.970;22.868;2023-02-04T04:28:29;100990.03;;;6.69;100.00
63808;BME280;49961;43.970;22.868;2023-02-04T04:29:29;100988.44;;;6.65;100.00
63808;BME280;49961;43.970;22.868;2023-02-04T04:30:30;100965.25;;;6.59;100.00
63808;BME280;49961;43.970;22.868;2023-02-04T04:31:30;100986.47;;;6.79;100.00
63808;BME280;49961;43.970;22.868;2023-02-04T04:32:30;100993.91;;;6.82;100.00
63808;BME280;49961;43.970;22.868;2023-02-04T04:33:31;100988.41;;;6.82;100.00
63808;BME280;49961;43.970;22.868;2023-02-04T04:34:31;100976.63;;;6.75;100.00
63808;BME280;49961;43.970;22.868;2023-02-04T04:35:32;100990.38;;;6.89;100.00
63808;BME280;49961;43.970;22.868;2023-02-04T04:36:33;100989.19;;;6.90;100.00
63808;BME280;49961;43.970;22.868;2023-02-04T04:37:34;100987.97;;;6.91;100.00
63808;BME280;49961;43.970;22.868;2023-02-04T04:38:34;100992.31;;;6.95;100.00
63808;BME280;49961;43.970;22.868;2023-02-04T04:39:36;100983.22;;;6.98;100.00
63808;BME280;49961;43.970;22.868;2023-02-04T04:40:36;100989.16;;;7.00;100.00
63808;BME280;49961;43.970;22.868;2023-02-04T04:41:37;100984.00;;;7.06;100.00
63808;BME280;49961;43.970;22.868;2023-02-04T04:42:37;100992.25;;;7.06;100.00
63808;BME280;49961;43.970;22.868;2023-02-04T04:43:38;100991.09;;;7.10;100.00
63808;BME280;49961;43.970;22.868;2023-02-04T04:44:38;100993.84;;;7.10;100.00
63808;BME280;49961;43.970;22.868;2023-02-04T04:45:38;100986.75;;;7.09;100.00
63808;BME280;49961;43.970;22.868;2023-02-04T04:46:39;100982.81;;;7.10;100.00
63808;BME280;49961;43.970;22.868;2023-02-04T04:47:39;100991.84;;;7.14;100.00
63808;BME280;49961;43.970;22.868;2023-02-04T04:48:40;100991.47;;;7.12;100.00
63808;BME280;49961;43.970;22.868;2023-02-04T04:49:40;100980.06;;;7.07;100.00
63808;BME280;49961;43.970;22.868;2023-02-04T04:50:41;100989.13;;;7.07;100.00
63808;BME280;49961;43.970;22.868;2023-02-04T04:51:41;100991.47;;;7.09;100.00
63808;BME280;49961;43.970;22.868;2023-02-04T04:52:42;100993.84;;;7.07;100.00
63808;BME280;49961;43.970;22.868;2023-02-04T04:53:42;100963.97;;;6.95;100.00
63808;BME280;49961;43.970;22.868;2023-02-04T04:54:42;101006.84;;;7.06;100.00
63808;BME280;49961;43.970;22.868;2023-02-04T04:55:43;101001.31;;;7.06;100.00
63808;BME280;49961;43.970;22.868;2023-02-04T04:56:43;100961.28;;;6.74;100.00
63808;BME280;49961;43.970;22.868;2023-02-04T04:57:44;100995.81;;;7.06;100.00
63808;BME280;49961;43.970;22.868;2023-02-04T04:58:44;101008.78;;;7.16;100.00
63808;BME280;49961;43.970;22.868;2023-02-04T04:59:45;101002.47;;;7.19;100.00
63808;BME280;49961;43.970;22.868;2023-02-04T05:00:45;101005.22;;;7.19;100.00
63808;BME280;49961;43.970;22.868;2023-02-04T05:01:46;100888.63;;;6.40;100.00
63808;BME280;49961;43.970;22.868;2023-02-04T05:02:46;101009.13;;;7.25;100.00
63808;BME280;49961;43.970;22.868;2023-02-04T05:03:47;101019.31;;;7.32;100.00
63808;BME280;49961;43.970;22.868;2023-02-04T05:04:47;101028.38;;;7.32;100.00
63808;BME280;49961;43.970;22.868;2023-02-04T05:05:48;101020.91;;;7.33;100.00
63808;BME280;49961;43.970;22.868;2023-02-04T05:06:48;101012.25;;;7.27;100.00
63808;BME280;49961;43.970;22.868;2023-02-04T05:07:49;101037.78;;;7.45;100.00
63808;BME280;49961;43.970;22.868;2023-02-04T05:08:50;101040.13;;;7.50;100.00
63808;BME280;49961;43.970;22.868;2023-02-04T05:09:50;101038.16;;;7.51;100.00
63808;BME280;49961;43.970;22.868;2023-02-04T05:10:51;101033.81;;;7.50;100.00
63808;BME280;49961;43.970;22.868;2023-02-04T05:11:51;101031.88;;;7.50;100.00
63808;BME280;49961;43.970;22.868;2023-02-04T05:12:52;101036.63;;;7.43;100.00
63808;BME280;49961;43.970;22.868;2023-02-04T05:13:52;100997.75;;;7.16;100.00
63808;BME280;49961;43.970;22.868;2023-02-04T05:14:53;101037.78;;;7.49;100.00
63808;BME280;49961;43.970;22.868;2023-02-04T05:15:53;101035.03;;;7.45;100.00